createdAt,value
2024-04-11T00:02:43.208Z,999.60
2024-04-11T00:05:53.060Z,1002.80
2024-04-11T00:09:03.060Z,1001.95
2024-04-11T00:12:12.875Z,1000.08
2024-04-11T00:15:22.437Z,996.75
2024-04-11T00:18:29.539Z,1003.67
2024-04-11T00:21:39.925Z,995.70
2024-04-11T00:24:49.836Z,996.95
2024-04-11T00:28:02.505Z,995.65
2024-04-11T00:31:09.783Z,997.65
2024-04-11T00:34:25.089Z,997.42
2024-04-11T00:37:32.744Z,999.97
2024-04-11T00:40:42.608Z,1003.13
2024-04-11T00:43:54.973Z,997.15
2024-04-11T00:47:02.130Z,996.75
2024-04-11T00:50:12.192Z,999.58
2024-04-11T00:53:19.918Z,998.70
2024-04-11T00:56:29.707Z,1000.25
2024-04-11T00:59:40.722Z,997.22
2024-04-11T01:02:51.387Z,994.83
2024-04-11T01:06:01.473Z,993.45
2024-04-11T01:09:11.001Z,995.90
2024-04-11T01:12:20.894Z,995.92
2024-04-11T01:15:30.700Z,994.70
2024-04-11T01:18:40.496Z,999.40
2024-04-11T01:21:47.856Z,993.88
2024-04-11T01:25:00.513Z,994.55
2024-04-11T01:28:10.714Z,991.78
2024-04-11T01:31:20.565Z,996.65
2024-04-11T01:34:31.667Z,996.53
2024-04-11T01:37:41.346Z,991.45
2024-04-11T01:40:51.129Z,995.40
2024-04-11T01:44:00.913Z,991.10
2024-04-11T01:47:08.295Z,994.80
2024-04-11T01:50:18.321Z,1001.58
2024-04-11T01:53:25.465Z,994.72
2024-04-11T01:56:37.983Z,998.08
2024-04-11T01:59:48.312Z,997.65
2024-04-11T02:02:55.664Z,996.60
2024-04-11T02:06:05.962Z,940.40
2024-04-11T02:09:17.373Z,923.40
2024-04-11T02:12:29.925Z,986.65
2024-04-11T02:15:40.238Z,993.78
2024-04-11T02:18:47.318Z,997.50
2024-04-11T02:21:57.144Z,1002.22
2024-04-11T02:25:04.558Z,998.38
2024-04-11T02:28:17.434Z,997.55
2024-04-11T02:31:27.432Z,997.65
2024-04-11T02:34:34.721Z,1003.78
2024-04-11T02:37:45.306Z,1000.58
2024-04-11T02:40:52.344Z,1000.42
2024-04-11T02:44:05.793Z,999.50
2024-04-11T02:47:15.558Z,1005.03
2024-04-11T02:50:25.497Z,1004.50
2024-04-11T02:53:33.685Z,999.90
2024-04-11T02:56:43.946Z,1004.65
2024-04-11T02:59:55.936Z,1004.38
2024-04-11T03:03:05.763Z,1005.20
2024-04-11T03:06:18.502Z,1002.28
2024-04-11T03:12:38.413Z,993.63
2024-04-11T03:15:48.366Z,982.70
2024-04-11T03:18:58.434Z,1001.53
2024-04-11T03:22:08.655Z,1002.80
2024-04-11T03:25:15.954Z,998.45
2024-04-11T03:28:25.855Z,1003.78
2024-04-11T03:31:41.900Z,1001.47
2024-04-11T03:34:49.443Z,1000.45
2024-04-11T03:37:59.365Z,1004.92
2024-04-11T03:41:09.024Z,1005.95
2024-04-11T03:44:19.407Z,1003.17
2024-04-11T03:47:32.948Z,1002.30
2024-04-11T03:50:44.001Z,1000.30
2024-04-11T03:53:52.567Z,1004.58
2024-04-11T03:57:02.468Z,1005.45
2024-04-11T04:00:10.628Z,1007.83
2024-04-11T04:03:26.511Z,1007.83
2024-04-11T04:06:37.041Z,1003.97
2024-04-11T04:09:44.397Z,1004.40
2024-04-11T04:12:58.940Z,1001.75
2024-04-11T04:16:12.150Z,1004.72
2024-04-11T04:22:31.697Z,993.55
2024-04-11T04:25:41.962Z,999.92
2024-04-11T04:28:54.819Z,1002.10
2024-04-11T04:35:14.322Z,996.40
2024-04-11T04:38:23.975Z,1000.10
2024-04-11T04:41:31.390Z,1004.33
2024-04-11T04:44:41.341Z,1004.45
2024-04-11T04:47:48.988Z,1008.45
2024-04-11T04:51:01.522Z,1004.60
2024-04-11T04:54:13.466Z,1001.67
2024-04-11T04:57:23.866Z,1000.15
2024-04-11T05:00:31.847Z,1003.78
2024-04-11T05:03:42.068Z,1003.40
2024-04-11T05:06:53.726Z,999.20
2024-04-11T05:10:03.687Z,1004.45
2024-04-11T05:13:11.018Z,1001.45
2024-04-11T05:16:22.904Z,991.20
2024-04-11T05:19:30.529Z,982.60
2024-04-11T05:22:43.173Z,985.92
2024-04-11T05:25:50.281Z,982.97
2024-04-11T05:29:00.362Z,975.00
2024-04-11T05:32:12.047Z,985.58
2024-04-11T05:35:25.007Z,980.30
2024-04-11T05:38:39.196Z,978.42
2024-04-11T05:41:47.879Z,988.47
2024-04-11T05:44:58.249Z,988.42
2024-04-11T05:48:11.554Z,990.40
2024-04-11T05:51:20.370Z,994.38
2024-04-11T05:54:32.893Z,992.60
2024-04-11T05:57:39.990Z,990.83
2024-04-11T06:00:50.906Z,990.70
2024-04-11T06:03:58.334Z,992.15
2024-04-11T06:07:08.881Z,991.00
2024-04-11T06:10:21.666Z,997.63
2024-04-11T06:13:31.872Z,992.58
2024-04-11T06:16:41.913Z,982.25
2024-04-11T06:19:48.979Z,994.20
2024-04-11T06:23:10.042Z,995.15
2024-04-11T06:26:19.692Z,990.88
2024-04-11T06:29:29.520Z,988.90
2024-04-11T06:32:38.364Z,994.50
2024-04-11T06:35:49.708Z,994.40
2024-04-11T06:38:57.134Z,986.72
2024-04-11T06:42:14.705Z,994.80
2024-04-11T06:45:22.997Z,994.60
2024-04-11T06:48:32.857Z,990.28
2024-04-11T06:51:42.825Z,980.92
2024-04-11T06:54:49.968Z,984.83
2024-04-11T06:58:02.890Z,988.53
2024-04-11T07:01:16.851Z,985.17
2024-04-11T07:04:25.142Z,832.95
2024-04-11T07:07:36.774Z,958.05
2024-04-11T07:10:48.020Z,851.85
2024-04-11T07:13:59.331Z,425.23
2024-04-11T07:17:12.954Z,260.60
2024-04-11T07:20:27.322Z,263.25
2024-04-11T07:23:38.465Z,267.17
2024-04-11T07:26:50.023Z,226.02
2024-04-11T07:30:06.864Z,290.33
2024-04-11T07:33:14.342Z,327.73
2024-04-11T07:36:27.197Z,294.92
2024-04-11T07:39:37.890Z,353.10
2024-04-11T07:42:55.593Z,286.75
2024-04-11T07:46:10.219Z,334.77
2024-04-11T07:49:17.887Z,319.73
2024-04-11T07:52:28.882Z,381.02
2024-04-11T07:55:37.258Z,322.13
2024-04-11T07:58:47.375Z,990.72
2024-04-11T08:02:00.328Z,994.00
2024-04-11T08:05:07.939Z,990.28
2024-04-11T08:08:21.524Z,992.22
2024-04-11T08:11:33.009Z,994.78
2024-04-11T08:14:40.201Z,994.38
2024-04-11T08:17:52.874Z,992.40
2024-04-11T08:21:00.463Z,997.17
2024-04-11T08:24:12.818Z,996.28
2024-04-11T08:27:21.855Z,995.75
2024-04-11T08:30:31.942Z,996.63
2024-04-11T08:33:44.777Z,1006.53
2024-04-11T08:36:54.117Z,1004.90
2024-04-11T08:40:11.333Z,1001.05
2024-04-11T08:43:21.343Z,1005.08
2024-04-11T08:46:31.540Z,1004.80
2024-04-11T08:49:41.329Z,1005.65
2024-04-11T08:52:51.711Z,998.40
2024-04-11T08:55:59.280Z,999.90
2024-04-11T08:59:11.062Z,997.15
2024-04-11T09:02:18.049Z,997.25
2024-04-11T09:05:30.691Z,995.25
2024-04-11T09:08:38.008Z,990.65
2024-04-11T09:11:48.107Z,989.20
2024-04-11T09:14:57.936Z,991.85
2024-04-11T09:18:05.630Z,985.88
2024-04-11T09:21:18.987Z,969.38
2024-04-11T09:24:26.133Z,985.80
2024-04-11T09:27:44.080Z,974.22
2024-04-11T09:30:52.736Z,988.10
2024-04-11T09:34:03.162Z,996.25
2024-04-11T09:37:16.057Z,997.65
2024-04-11T09:40:27.514Z,987.20
2024-04-11T09:43:42.716Z,996.83
2024-04-11T09:46:50.053Z,996.50
2024-04-11T09:50:01.518Z,998.60
2024-04-11T09:53:27.331Z,999.47
2024-04-11T09:56:37.284Z,973.63
2024-04-11T09:59:44.864Z,971.05
2024-04-11T10:02:56.807Z,988.60
2024-04-11T10:06:06.425Z,1001.90
2024-04-11T10:09:21.711Z,1000.58
2024-04-11T10:12:29.995Z,1007.60
2024-04-11T10:15:41.578Z,1001.53
2024-04-11T10:18:54.423Z,1003.30
2024-04-11T10:22:06.373Z,1000.90
2024-04-11T10:25:20.625Z,1008.35
2024-04-11T10:28:39.790Z,1002.92
2024-04-11T10:31:53.609Z,1004.03
2024-04-11T10:35:03.062Z,1005.40
2024-04-11T10:38:14.360Z,1004.00
2024-04-11T10:41:27.505Z,1003.00
2024-04-11T10:44:35.840Z,1003.85
2024-04-11T10:47:45.987Z,1005.08
2024-04-11T10:50:53.534Z,1002.70
2024-04-11T10:54:10.794Z,1005.80
2024-04-11T10:57:21.014Z,1005.03
2024-04-11T11:00:54.039Z,1004.03
2024-04-11T11:04:08.186Z,1000.05
2024-04-11T11:07:15.579Z,1003.88
2024-04-11T11:10:25.772Z,1010.28
2024-04-11T11:13:37.314Z,1005.95
2024-04-11T11:16:48.452Z,1004.35
2024-04-11T11:19:57.348Z,1006.58
2024-04-11T11:23:14.899Z,1003.42
2024-04-11T11:26:28.904Z,1006.97
2024-04-11T11:29:43.676Z,1007.08
2024-04-11T11:32:51.135Z,1007.70
2024-04-11T11:36:01.850Z,1005.55
2024-04-11T11:39:19.055Z,1006.78
2024-04-11T11:42:33.480Z,1002.55
2024-04-11T11:46:06.375Z,1006.20
2024-04-11T11:49:19.144Z,1005.50
2024-04-11T11:52:28.986Z,1008.22
2024-04-11T11:55:46.951Z,1003.67
2024-04-11T11:58:58.567Z,1007.55
2024-04-11T12:02:15.209Z,1007.42
2024-04-11T12:05:25.097Z,1007.47
2024-04-11T12:08:39.545Z,1010.13
2024-04-11T12:12:08.855Z,1005.13
2024-04-11T12:15:19.179Z,1007.00
2024-04-11T12:18:29.808Z,1006.80
2024-04-11T12:21:46.457Z,1007.67
2024-04-11T12:24:54.055Z,1013.30
2024-04-11T12:28:05.692Z,1009.00
2024-04-11T12:31:16.946Z,1013.35
2024-04-11T12:34:34.013Z,1015.58
2024-04-11T12:37:46.859Z,1011.20
2024-04-11T12:40:59.845Z,1008.67
2024-04-11T12:44:12.963Z,1008.53
2024-04-11T12:47:24.811Z,1008.92
2024-04-11T12:50:36.847Z,1001.92
2024-04-11T12:53:46.794Z,1005.45
2024-04-11T12:57:03.984Z,1005.58
2024-04-11T13:00:36.221Z,1002.70
2024-04-11T13:03:56.906Z,1008.95
2024-04-11T13:07:14.985Z,1010.53
2024-04-11T13:10:22.872Z,1006.92
2024-04-11T13:13:32.972Z,1009.38
2024-04-11T13:16:41.721Z,1012.03
2024-04-11T13:19:53.070Z,1009.10
2024-04-11T13:23:22.519Z,1009.78
2024-04-11T13:26:38.400Z,1009.58
2024-04-11T13:29:49.512Z,1009.67
2024-04-11T13:32:57.813Z,1005.92
2024-04-11T13:36:13.787Z,1012.15
2024-04-11T13:39:31.254Z,1011.53
2024-04-11T13:42:42.356Z,1008.13
2024-04-11T13:45:58.146Z,1009.72
2024-04-11T13:49:26.592Z,1011.10
2024-04-11T13:52:37.058Z,1009.90
2024-04-11T13:55:47.033Z,1009.35
2024-04-11T13:58:59.656Z,1010.55
2024-04-11T14:06:01.285Z,999.78
2024-04-11T14:09:18.942Z,1004.10
2024-04-11T14:12:29.888Z,1007.38
2024-04-11T14:15:41.244Z,1006.13
2024-04-11T14:18:49.437Z,1006.28
2024-04-11T14:22:09.865Z,1012.17
2024-04-11T14:25:40.552Z,1009.33
2024-04-11T14:28:56.440Z,1007.40
2024-04-11T14:32:03.972Z,1010.50
2024-04-11T14:35:23.983Z,1010.50
2024-04-11T14:38:34.830Z,1009.38
2024-04-11T14:41:45.044Z,1007.60
2024-04-11T14:44:57.783Z,1008.72
2024-04-11T14:48:16.632Z,1003.72
2024-04-11T14:51:28.031Z,1009.10
2024-04-11T14:54:36.613Z,1002.15
2024-04-11T14:57:47.699Z,1003.13
2024-04-11T15:01:01.050Z,1008.88
2024-04-11T15:04:11.481Z,1005.25
2024-04-11T15:07:23.696Z,1004.75
2024-04-11T15:10:43.225Z,1001.03
2024-04-11T15:13:54.981Z,1000.47
2024-04-11T15:17:20.900Z,1000.85
2024-04-11T15:20:49.549Z,1006.97
2024-04-11T15:24:00.396Z,999.58
2024-04-11T15:27:13.520Z,1000.53
2024-04-11T15:30:33.796Z,1003.88
2024-04-11T15:33:55.553Z,1001.53
2024-04-11T15:37:28.960Z,1001.83
2024-04-11T15:40:36.206Z,1003.83
2024-04-11T15:43:50.596Z,1006.97
2024-04-11T15:47:05.036Z,1007.20
2024-04-11T15:50:17.649Z,1007.53
2024-04-11T15:53:32.555Z,1005.00
2024-04-11T15:56:39.746Z,1007.58
2024-04-11T15:59:53.117Z,1012.40
2024-04-11T16:03:04.296Z,1010.65
2024-04-11T16:06:26.913Z,1013.03
2024-04-11T16:09:37.926Z,1012.25
2024-04-11T16:12:48.564Z,1012.35
2024-04-11T16:15:59.907Z,1013.58
2024-04-11T16:19:07.370Z,1011.85
2024-04-11T16:22:20.648Z,1013.45
2024-04-11T16:25:34.207Z,1016.58
2024-04-11T16:28:44.137Z,1015.88
2024-04-11T16:31:53.044Z,1015.83
2024-04-11T16:35:03.068Z,1012.30
2024-04-11T16:38:12.966Z,1010.58
2024-04-11T16:41:22.911Z,1018.85
2024-04-11T16:44:37.997Z,1016.50
2024-04-11T16:47:47.886Z,1017.85
2024-04-11T16:50:58.200Z,1016.58
2024-04-11T16:54:20.232Z,1017.38
2024-04-11T16:57:30.389Z,1016.85
2024-04-11T17:00:41.659Z,1019.42
2024-04-11T17:03:55.004Z,1017.05
2024-04-11T17:07:15.864Z,1019.42
2024-04-11T17:10:35.036Z,1015.65
2024-04-11T17:13:45.990Z,1018.30
2024-04-11T17:17:11.662Z,1019.38
2024-04-11T17:20:37.572Z,1020.13
2024-04-11T17:23:47.992Z,1019.70
2024-04-11T17:27:00.750Z,1016.97
2024-04-11T17:30:15.147Z,1015.20
2024-04-11T17:33:43.149Z,1015.63
2024-04-11T17:36:50.808Z,1010.15
2024-04-11T17:40:20.715Z,989.30
2024-04-11T17:43:30.349Z,1007.30
2024-04-11T17:46:56.647Z,1004.13
2024-04-11T17:50:07.058Z,1005.08
2024-04-11T17:53:18.739Z,1004.08
2024-04-11T17:56:36.031Z,1004.10
2024-04-11T17:59:49.724Z,999.88
2024-04-11T18:03:01.598Z,1004.33
2024-04-11T18:06:15.774Z,1005.75
2024-04-11T18:09:28.969Z,1007.83
2024-04-11T18:12:39.430Z,1012.10
2024-04-11T18:16:01.341Z,1013.88
2024-04-11T18:19:11.522Z,1010.45
2024-04-11T18:22:24.757Z,1012.10
2024-04-11T18:25:32.096Z,1010.58
2024-04-11T18:28:44.980Z,1014.90
2024-04-11T18:31:57.165Z,1008.50
2024-04-11T18:35:04.834Z,1008.85
2024-04-11T18:38:17.330Z,1002.50
2024-04-11T18:41:47.256Z,1012.58
2024-04-11T18:45:01.574Z,1002.70
2024-04-11T18:48:20.565Z,1005.83
2024-04-11T18:51:33.983Z,1012.60
2024-04-11T18:54:41.209Z,1011.78
2024-04-11T18:57:56.661Z,1014.13
2024-04-11T19:01:04.677Z,1011.33
2024-04-11T19:04:34.978Z,1010.63
2024-04-11T19:07:46.520Z,1013.13
2024-04-11T19:10:59.195Z,1011.97
2024-04-11T19:17:24.925Z,1002.50
2024-04-11T19:20:37.333Z,1007.90
2024-04-11T19:23:50.148Z,1006.65
2024-04-11T19:27:09.368Z,1010.45
2024-04-11T19:30:21.954Z,1013.78
2024-04-11T19:33:31.874Z,1012.70
2024-04-11T19:36:42.493Z,1012.10
2024-04-11T19:39:52.614Z,1011.47
2024-04-11T19:43:00.903Z,1012.08
2024-04-11T19:46:13.897Z,1009.72
2024-04-11T19:49:25.945Z,1006.92
2024-04-11T19:52:36.120Z,1006.58
2024-04-11T19:55:54.569Z,1006.40
2024-04-11T19:59:02.594Z,1010.97
2024-04-11T20:02:13.424Z,1008.30
2024-04-11T20:05:26.929Z,1007.72
2024-04-11T20:08:40.323Z,1009.65
2024-04-11T20:11:50.808Z,1006.22
2024-04-11T20:15:13.109Z,1006.80
2024-04-11T20:18:32.008Z,1008.28
2024-04-11T20:21:42.194Z,1008.78
2024-04-11T20:24:58.706Z,1013.38
2024-04-11T20:28:18.146Z,1010.20
2024-04-11T20:31:29.883Z,1012.10
2024-04-11T20:34:40.711Z,1012.22
2024-04-11T20:37:49.560Z,1011.15
2024-04-11T20:41:12.285Z,1013.85
2024-04-11T20:44:29.635Z,1012.42
2024-04-11T20:47:49.876Z,1012.58
2024-04-11T20:51:15.836Z,1013.10
2024-04-11T20:54:41.985Z,1006.13
2024-04-11T20:58:10.338Z,1014.53
2024-04-11T21:01:36.152Z,1013.92
2024-04-11T21:05:01.927Z,1009.45
2024-04-11T21:08:27.726Z,1010.92
2024-04-11T21:11:53.789Z,1006.50
2024-04-11T21:15:23.130Z,1013.47
2024-04-11T21:18:49.035Z,1009.75
2024-04-11T21:22:15.179Z,1007.60
2024-04-11T21:25:40.737Z,1006.03
2024-04-11T21:29:06.750Z,1002.47
2024-04-11T21:32:35.167Z,1004.05
2024-04-11T21:35:51.493Z,1003.42
2024-04-11T21:39:02.774Z,1008.15
2024-04-11T21:42:12.552Z,1006.78
2024-04-11T21:45:22.703Z,1008.42
2024-04-11T21:48:34.181Z,1008.90
